createdAt,value
2022-10-18T00:00:36.429Z,99.60
2022-10-18T00:03:22.813Z,99.80
2022-10-18T00:06:09.399Z,99.90
2022-10-18T00:08:55.090Z,99.90
2022-10-18T00:11:41.334Z,99.90
2022-10-18T00:14:27.338Z,99.90
2022-10-18T00:17:12.922Z,99.90
2022-10-18T00:19:58.294Z,99.90
2022-10-18T00:22:45.125Z,99.90
2022-10-18T00:25:30.838Z,99.90
2022-10-18T00:28:16.587Z,99.90
2022-10-18T00:31:18.063Z,99.90
2022-10-18T00:34:06.550Z,99.90
2022-10-18T00:36:52.050Z,99.90
2022-10-18T00:39:37.780Z,99.90
2022-10-18T00:42:29.744Z,99.90
2022-10-18T00:45:20.188Z,99.90
2022-10-18T00:48:05.880Z,99.90
2022-10-18T00:50:53.210Z,99.90
2022-10-18T00:53:40.006Z,99.90
2022-10-18T00:56:26.363Z,99.90
2022-10-18T00:59:15.428Z,99.90
2022-10-18T01:02:02.192Z,99.90
2022-10-18T01:04:48.510Z,99.90
2022-10-18T01:08:09.394Z,99.90
2022-10-18T01:10:58.175Z,99.90
2022-10-18T01:13:44.006Z,99.90
2022-10-18T01:17:05.789Z,99.90
2022-10-18T01:20:12.559Z,99.90
2022-10-18T01:23:35.493Z,99.90
2022-10-18T01:26:52.984Z,99.90
2022-10-18T01:30:08.129Z,99.90
2022-10-18T01:32:58.154Z,99.90
2022-10-18T01:35:46.004Z,99.90
2022-10-18T01:38:34.279Z,99.90
2022-10-18T01:41:22.642Z,99.90
2022-10-18T01:44:12.677Z,99.90
2022-10-18T01:46:59.630Z,99.90
2022-10-18T01:49:45.438Z,99.90
2022-10-18T01:52:31.568Z,99.90
2022-10-18T01:55:23.527Z,99.90
2022-10-18T01:58:26.118Z,99.90
2022-10-18T02:01:37.848Z,99.90
2022-10-18T02:04:26.261Z,99.90
2022-10-18T02:07:12.093Z,99.90
2022-10-18T02:10:20.636Z,99.90
2022-10-18T02:13:07.560Z,99.90
2022-10-18T02:15:57.893Z,99.90
2022-10-18T02:18:50.353Z,99.90
2022-10-18T02:21:37.923Z,99.90
2022-10-18T02:24:30.443Z,99.90
2022-10-18T02:27:16.121Z,99.90
2022-10-18T02:30:01.590Z,99.90
2022-10-18T02:33:11.574Z,99.90
2022-10-18T02:36:06.584Z,99.90
2022-10-18T02:38:58.847Z,99.90
2022-10-18T02:41:44.534Z,99.90
2022-10-18T02:44:30.090Z,99.90
2022-10-18T02:47:15.791Z,99.90
2022-10-18T02:50:01.320Z,99.90
2022-10-18T02:52:46.933Z,99.90
2022-10-18T02:55:32.512Z,99.90
2022-10-18T02:58:17.877Z,99.90
2022-10-18T03:01:03.785Z,99.90
2022-10-18T03:03:50.010Z,99.90
2022-10-18T03:06:35.909Z,99.90
2022-10-18T03:09:21.459Z,99.90
2022-10-18T03:12:07.626Z,99.90
2022-10-18T03:14:53.520Z,99.90
2022-10-18T03:17:39.100Z,99.90
2022-10-18T03:20:24.741Z,99.90
2022-10-18T03:23:10.536Z,99.90
2022-10-18T03:25:55.650Z,99.90
2022-10-18T03:28:41.191Z,99.90
2022-10-18T03:31:26.781Z,99.90
2022-10-18T03:34:12.265Z,99.90
2022-10-18T03:37:01.004Z,99.90
2022-10-18T03:39:51.031Z,99.90
2022-10-18T03:42:36.525Z,99.90
2022-10-18T03:45:22.197Z,99.90
2022-10-18T03:48:07.981Z,99.90
2022-10-18T03:50:53.751Z,99.90
2022-10-18T03:53:39.999Z,99.90
2022-10-18T03:56:25.932Z,99.90
2022-10-18T03:59:11.552Z,99.90
2022-10-18T04:01:57.558Z,99.90
2022-10-18T04:04:42.949Z,99.90
2022-10-18T04:07:28.548Z,99.90
2022-10-18T04:10:14.191Z,99.90
2022-10-18T04:12:59.788Z,99.90
2022-10-18T04:15:45.255Z,99.90
2022-10-18T04:18:30.843Z,99.90
2022-10-18T04:21:23.954Z,99.90
2022-10-18T04:24:10.081Z,99.90
2022-10-18T04:26:55.865Z,99.90
2022-10-18T04:29:41.335Z,99.90
2022-10-18T04:32:28.994Z,99.90
2022-10-18T04:35:15.361Z,99.90
2022-10-18T04:38:01.420Z,99.90
2022-10-18T04:40:47.366Z,99.90
2022-10-18T04:43:32.801Z,99.90
2022-10-18T04:46:18.444Z,99.90
2022-10-18T04:49:04.811Z,99.90
2022-10-18T04:51:51.610Z,99.90
2022-10-18T04:54:37.392Z,99.90
2022-10-18T04:57:23.267Z,99.90
2022-10-18T05:00:09.737Z,99.90
2022-10-18T05:02:58.601Z,99.90
2022-10-18T05:06:02.792Z,99.90
2022-10-18T05:08:49.621Z,99.90
2022-10-18T05:11:35.283Z,99.90
2022-10-18T05:14:20.918Z,99.90
2022-10-18T05:17:06.494Z,99.90
2022-10-18T05:19:52.225Z,99.90
2022-10-18T05:22:37.832Z,99.90
2022-10-18T05:25:23.628Z,99.90
2022-10-18T05:28:34.168Z,99.90
2022-10-18T05:31:17.048Z,99.90
2022-10-18T05:34:11.153Z,99.90
2022-10-18T05:36:56.879Z,99.90
2022-10-18T05:39:42.913Z,99.90
2022-10-18T05:42:28.535Z,99.90
2022-10-18T05:45:14.143Z,99.90
2022-10-18T05:48:03.344Z,99.90
2022-10-18T05:50:50.085Z,99.90
2022-10-18T05:53:37.509Z,99.90
2022-10-18T05:56:23.482Z,99.90
2022-10-18T05:59:12.304Z,99.90
2022-10-18T06:01:58.316Z,99.90
2022-10-18T06:04:43.796Z,99.90
2022-10-18T06:07:34.270Z,99.90
2022-10-18T06:10:20.495Z,99.90
2022-10-18T06:13:05.801Z,99.90
2022-10-18T06:15:55.148Z,99.90
2022-10-18T06:18:41.804Z,99.90
2022-10-18T06:21:27.915Z,99.90
2022-10-18T06:24:13.462Z,99.90
2022-10-18T06:26:59.446Z,99.90
2022-10-18T06:29:45.178Z,99.90
2022-10-18T06:32:30.689Z,99.90
2022-10-18T06:35:16.252Z,99.90
2022-10-18T06:38:01.991Z,99.90
2022-10-18T06:40:48.442Z,99.90
2022-10-18T06:43:34.472Z,99.90
2022-10-18T06:46:20.509Z,99.80
2022-10-18T06:49:06.027Z,99.90
2022-10-18T06:51:53.351Z,99.90
2022-10-18T06:54:38.702Z,99.90
2022-10-18T06:57:24.322Z,99.90
2022-10-18T07:00:10.522Z,99.90
2022-10-18T07:02:58.258Z,99.90
2022-10-18T07:05:44.068Z,99.90
2022-10-18T07:08:30.329Z,99.90
2022-10-18T07:11:18.642Z,99.80
2022-10-18T07:14:05.255Z,99.60
2022-10-18T07:16:50.976Z,99.20
2022-10-18T07:19:36.612Z,99.20
2022-10-18T07:22:22.982Z,99.30
2022-10-18T07:25:11.008Z,99.40
2022-10-18T07:27:57.107Z,99.30
2022-10-18T07:30:42.807Z,99.70
2022-10-18T07:33:29.425Z,99.90
2022-10-18T07:36:14.893Z,98.70
2022-10-18T07:39:00.471Z,98.50
2022-10-18T07:41:46.135Z,98.30
2022-10-18T07:44:31.366Z,98.90
2022-10-18T07:47:17.040Z,98.70
2022-10-18T07:50:02.562Z,98.70
2022-10-18T07:52:48.307Z,98.80
2022-10-18T07:55:33.879Z,98.80
2022-10-18T07:58:19.406Z,98.50
2022-10-18T08:01:06.734Z,98.00
2022-10-18T08:03:52.961Z,98.70
2022-10-18T08:06:38.671Z,98.40
2022-10-18T08:09:24.207Z,97.10
2022-10-18T08:12:09.877Z,97.70
2022-10-18T08:14:55.279Z,96.70
2022-10-18T08:17:40.933Z,96.60
2022-10-18T08:20:30.991Z,96.90
2022-10-18T08:23:17.081Z,96.50
2022-10-18T08:26:05.381Z,95.90
2022-10-18T08:29:10.386Z,95.80
2022-10-18T08:31:57.409Z,95.70
2022-10-18T08:34:42.800Z,95.30
2022-10-18T08:37:28.541Z,95.40
2022-10-18T08:40:15.093Z,95.30
2022-10-18T08:46:27.086Z,94.70
2022-10-18T08:49:37.192Z,95.20
2022-10-18T08:52:35.111Z,94.20
2022-10-18T08:55:40.048Z,93.20
2022-10-18T08:58:29.533Z,94.60
2022-10-18T09:01:17.970Z,95.50
2022-10-18T09:04:21.646Z,94.80
2022-10-18T09:07:45.100Z,94.00
2022-10-18T09:11:07.254Z,93.10
2022-10-18T09:14:03.390Z,93.10
2022-10-18T09:16:54.747Z,93.40
2022-10-18T09:20:23.586Z,93.50
2022-10-18T09:23:25.061Z,93.20
2022-10-18T09:26:19.455Z,92.00
2022-10-18T09:29:23.801Z,91.50
2022-10-18T09:32:31.106Z,90.90
2022-10-18T09:35:24.546Z,91.00
2022-10-18T09:38:13.151Z,89.80
2022-10-18T09:41:33.408Z,88.30
2022-10-18T09:44:35.165Z,87.00
2022-10-18T09:47:34.827Z,84.30
2022-10-18T09:50:24.220Z,86.70
2022-10-18T09:53:18.835Z,85.70
2022-10-18T09:56:40.935Z,87.50
2022-10-18T09:59:39.495Z,86.60
2022-10-18T10:02:25.424Z,84.40
2022-10-18T10:05:14.593Z,85.30
2022-10-18T10:08:02.119Z,84.30
2022-10-18T10:10:48.054Z,82.60
2022-10-18T10:13:33.679Z,79.80
2022-10-18T10:16:19.107Z,79.50
2022-10-18T10:19:04.831Z,81.10
2022-10-18T10:21:54.942Z,80.40
2022-10-18T10:24:48.463Z,81.20
2022-10-18T10:27:43.449Z,78.60
2022-10-18T10:30:31.852Z,83.10
2022-10-18T10:33:35.835Z,79.70
2022-10-18T10:36:21.947Z,82.00
2022-10-18T10:39:18.340Z,78.50
2022-10-18T10:42:05.848Z,78.00
2022-10-18T10:44:54.482Z,80.30
2022-10-18T10:47:40.589Z,75.00
2022-10-18T10:50:28.305Z,76.30
2022-10-18T10:53:36.170Z,73.70
2022-10-18T10:56:23.839Z,74.60
2022-10-18T10:59:17.979Z,74.60
2022-10-18T11:02:30.656Z,74.50
2022-10-18T11:05:27.018Z,72.30
2022-10-18T11:08:25.516Z,74.30
2022-10-18T11:11:28.545Z,72.10
2022-10-18T11:14:26.858Z,69.40
2022-10-18T11:17:25.277Z,70.10
2022-10-18T11:20:17.380Z,67.80
2022-10-18T11:23:11.385Z,68.30
2022-10-18T11:26:13.122Z,68.70
2022-10-18T11:29:43.666Z,66.70
2022-10-18T11:32:55.387Z,65.10
2022-10-18T11:35:59.116Z,62.00
2022-10-18T11:39:01.760Z,64.10
2022-10-18T11:41:53.612Z,60.90
2022-10-18T11:44:50.318Z,59.70
2022-10-18T11:47:55.109Z,56.10
2022-10-18T11:50:53.570Z,54.40
2022-10-18T11:53:56.117Z,50.80
2022-10-18T11:57:01.952Z,46.70
2022-10-18T12:00:21.274Z,42.20
2022-10-18T12:03:18.846Z,38.30
2022-10-18T12:06:12.346Z,34.80
2022-10-18T12:09:02.175Z,33.80
2022-10-18T12:11:55.772Z,33.90
2022-10-18T12:14:55.656Z,33.40
2022-10-18T12:17:50.115Z,34.10
2022-10-18T12:20:45.257Z,32.70
2022-10-18T12:23:30.814Z,35.40
2022-10-18T12:26:17.613Z,35.00
2022-10-18T12:29:25.918Z,33.50
2022-10-18T12:32:16.288Z,36.70
2022-10-18T12:35:09.935Z,41.90
2022-10-18T12:38:04.720Z,45.30
2022-10-18T12:40:53.331Z,43.80
2022-10-18T12:43:38.782Z,42.40
2022-10-18T12:46:24.590Z,42.30
2022-10-18T12:49:12.736Z,42.30
2022-10-18T12:52:07.178Z,41.80
2022-10-18T12:55:19.338Z,45.40
2022-10-18T12:58:21.799Z,48.20
2022-10-18T13:01:07.504Z,47.70
2022-10-18T13:03:56.586Z,44.70
2022-10-18T13:07:00.889Z,46.10
2022-10-18T13:10:15.030Z,43.10
2022-10-18T13:13:39.262Z,43.80
2022-10-18T13:17:04.076Z,42.90
2022-10-18T13:20:24.155Z,43.70
2022-10-18T13:23:07.781Z,42.30
2022-10-18T13:26:31.961Z,43.30
2022-10-18T13:29:50.558Z,41.30
2022-10-18T13:32:57.331Z,41.30
2022-10-18T13:35:55.016Z,41.10
2022-10-18T13:38:57.266Z,40.40
2022-10-18T13:41:43.311Z,40.40
2022-10-18T13:44:43.586Z,39.80
2022-10-18T13:47:37.340Z,40.80
2022-10-18T13:50:38.186Z,41.60
2022-10-18T13:53:57.887Z,41.40
2022-10-18T13:57:25.626Z,41.20
2022-10-18T14:00:20.516Z,41.10
2022-10-18T14:03:55.103Z,42.00
2022-10-18T14:06:40.688Z,42.20
2022-10-18T14:09:43.522Z,42.00
2022-10-18T14:12:38.147Z,42.10
2022-10-18T14:15:26.529Z,42.00
2022-10-18T14:18:18.267Z,43.90
2022-10-18T14:21:21.766Z,43.40
2022-10-18T14:24:19.122Z,43.60
2022-10-18T14:27:19.785Z,43.50
2022-10-18T14:30:15.911Z,42.10
2022-10-18T14:33:01.663Z,42.50
2022-10-18T14:36:03.706Z,43.30
2022-10-18T14:38:58.481Z,42.10
2022-10-18T14:41:55.934Z,42.50
2022-10-18T14:44:41.734Z,43.60
2022-10-18T14:47:31.337Z,45.70
2022-10-18T14:50:30.662Z,48.00
2022-10-18T14:53:25.070Z,49.30
2022-10-18T14:56:22.862Z,53.80
2022-10-18T14:59:25.067Z,54.30
2022-10-18T15:02:16.033Z,55.50
2022-10-18T15:05:20.839Z,56.60
2022-10-18T15:08:06.640Z,56.40
2022-10-18T15:10:52.787Z,57.30
2022-10-18T15:14:08.799Z,56.10
2022-10-18T15:17:01.771Z,57.50
2022-10-18T15:19:59.334Z,58.40
2022-10-18T15:22:47.872Z,60.50
2022-10-18T15:25:35.865Z,60.50
2022-10-18T15:28:36.239Z,61.40
2022-10-18T15:31:26.722Z,62.50
2022-10-18T15:34:18.782Z,64.00
2022-10-18T15:37:17.903Z,63.80
2022-10-18T15:40:37.056Z,64.70
2022-10-18T15:43:28.455Z,66.40
2022-10-18T15:46:31.151Z,67.40
2022-10-18T15:49:44.683Z,68.50
2022-10-18T15:52:35.226Z,69.60
2022-10-18T15:55:33.706Z,70.20
2022-10-18T15:58:29.961Z,71.10
2022-10-18T16:01:20.335Z,71.80
2022-10-18T16:04:18.560Z,72.20
2022-10-18T16:07:04.266Z,72.60
2022-10-18T16:09:49.903Z,73.20
2022-10-18T16:12:35.364Z,74.00
2022-10-18T16:15:21.020Z,74.30
2022-10-18T16:18:07.141Z,75.50
2022-10-18T16:20:53.188Z,76.40
2022-10-18T16:23:39.266Z,76.90
2022-10-18T16:26:26.226Z,77.50
2022-10-18T16:29:15.816Z,78.00
2022-10-18T16:32:02.975Z,79.10
2022-10-18T16:34:48.840Z,80.10
2022-10-18T16:37:34.498Z,80.70
2022-10-18T16:40:26.112Z,81.30
2022-10-18T16:43:11.826Z,81.90
2022-10-18T16:45:58.059Z,82.80
2022-10-18T16:48:44.115Z,83.70
2022-10-18T16:51:29.868Z,84.40
2022-10-18T16:54:15.510Z,85.00
2022-10-18T16:57:02.761Z,85.60
2022-10-18T16:59:48.987Z,86.10
2022-10-18T17:02:36.671Z,86.00
2022-10-18T17:05:23.924Z,87.50
2022-10-18T17:08:32.708Z,87.80
2022-10-18T17:11:21.343Z,88.70
2022-10-18T17:14:06.802Z,90.00
2022-10-18T17:16:55.911Z,90.10
2022-10-18T17:19:42.900Z,90.70
2022-10-18T17:22:28.330Z,92.00
2022-10-18T17:25:14.568Z,92.70
2022-10-18T17:27:59.887Z,93.00
2022-10-18T17:30:46.378Z,93.30
2022-10-18T17:33:32.630Z,93.50
2022-10-18T17:36:18.889Z,93.70
2022-10-18T17:39:04.726Z,94.60
2022-10-18T17:41:50.976Z,94.60
2022-10-18T17:44:36.920Z,94.70
2022-10-18T17:47:24.068Z,95.00
2022-10-18T17:50:10.396Z,95.20
2022-10-18T17:52:57.315Z,95.70
2022-10-18T17:55:42.845Z,95.70
2022-10-18T17:58:28.746Z,96.20
2022-10-18T18:01:19.756Z,96.90
2022-10-18T18:04:06.657Z,97.30
2022-10-18T18:06:52.947Z,97.50
2022-10-18T18:09:38.870Z,97.40
2022-10-18T18:12:25.965Z,97.30
2022-10-18T18:15:13.210Z,97.10
2022-10-18T18:17:59.077Z,96.90
2022-10-18T18:20:54.542Z,97.00
2022-10-18T18:23:41.591Z,97.00
2022-10-18T18:26:30.589Z,97.20
2022-10-18T18:29:16.840Z,97.00
2022-10-18T18:32:03.397Z,97.30
2022-10-18T18:34:51.927Z,97.90
2022-10-18T18:37:38.341Z,98.40
2022-10-18T18:40:24.547Z,98.90
2022-10-18T18:43:22.675Z,99.40
2022-10-18T18:46:10.663Z,99.40
2022-10-18T18:48:58.069Z,99.60
2022-10-18T18:51:44.468Z,99.40
2022-10-18T18:54:32.077Z,99.50
2022-10-18T18:57:17.947Z,99.70
2022-10-18T19:00:04.599Z,99.90
2022-10-18T19:02:51.138Z,99.90
2022-10-18T19:05:38.415Z,99.90
2022-10-18T19:08:24.422Z,99.90
2022-10-18T19:11:16.007Z,99.90
2022-10-18T19:14:04.463Z,99.90
2022-10-18T19:16:52.402Z,99.90
2022-10-18T19:19:40.834Z,99.90
2022-10-18T19:22:26.890Z,99.90
2022-10-18T19:25:13.813Z,99.90
2022-10-18T19:27:59.650Z,99.90
2022-10-18T19:30:50.026Z,99.90
2022-10-18T19:33:48.471Z,99.90
2022-10-18T19:36:44.955Z,99.90
2022-10-18T19:39:33.548Z,99.90
2022-10-18T19:42:31.526Z,99.90
2022-10-18T19:45:17.502Z,99.90
2022-10-18T19:48:03.567Z,99.90
2022-10-18T19:50:50.854Z,99.90
2022-10-18T19:53:37.361Z,99.90
2022-10-18T19:56:25.088Z,99.90
2022-10-18T19:59:12.324Z,99.90
2022-10-18T20:02:00.516Z,99.90
2022-10-18T20:04:46.446Z,99.90
2022-10-18T20:07:32.948Z,99.90
2022-10-18T20:10:18.677Z,99.90
2022-10-18T20:13:04.102Z,99.90
2022-10-18T20:15:51.350Z,99.90
2022-10-18T20:18:38.071Z,99.90
2022-10-18T20:21:26.503Z,99.90
2022-10-18T20:24:13.153Z,99.90
2022-10-18T20:26:58.585Z,99.90
2022-10-18T20:29:44.269Z,99.90
2022-10-18T20:32:32.267Z,99.90
2022-10-18T20:35:18.024Z,99.90
2022-10-18T20:38:05.218Z,99.90
2022-10-18T20:40:51.396Z,99.90
2022-10-18T20:43:37.783Z,99.90
2022-10-18T20:46:24.430Z,99.90
2022-10-18T20:49:14.514Z,99.90
2022-10-18T20:52:00.425Z,99.90
2022-10-18T20:54:46.178Z,99.90
2022-10-18T20:57:34.281Z,99.90
2022-10-18T21:00:22.329Z,99.90
2022-10-18T21:03:07.928Z,99.90
2022-10-18T21:05:54.079Z,99.90
2022-10-18T21:08:41.176Z,99.90
2022-10-18T21:11:29.196Z,99.90
2022-10-18T21:14:18.758Z,99.90
2022-10-18T21:17:05.351Z,99.90
2022-10-18T21:19:50.992Z,99.90
2022-10-18T21:22:36.608Z,99.90
2022-10-18T21:25:22.443Z,99.90
2022-10-18T21:28:08.619Z,99.90
2022-10-18T21:30:54.705Z,99.90
2022-10-18T21:33:42.120Z,99.90
2022-10-18T21:36:32.017Z,99.90
2022-10-18T21:39:21.063Z,99.90
2022-10-18T21:42:07.085Z,99.90
2022-10-18T21:44:52.651Z,99.90
2022-10-18T21:47:38.102Z,99.90
2022-10-18T21:50:23.642Z,99.90
2022-10-18T21:53:09.006Z,99.90
2022-10-18T21:55:54.459Z,99.90
2022-10-18T21:58:41.721Z,99.90
2022-10-18T22:01:32.689Z,99.90
2022-10-18T22:04:23.548Z,99.90
2022-10-18T22:07:09.022Z,99.90
2022-10-18T22:09:55.244Z,99.90
2022-10-18T22:12:40.727Z,99.90
2022-10-18T22:15:26.413Z,99.90
2022-10-18T22:18:12.333Z,99.90
2022-10-18T22:21:00.329Z,99.90
2022-10-18T22:23:50.595Z,99.90
2022-10-18T22:26:39.206Z,99.90
2022-10-18T22:29:25.133Z,99.90
2022-10-18T22:32:10.664Z,99.90
2022-10-18T22:34:56.321Z,99.90
2022-10-18T22:37:42.619Z,99.90
2022-10-18T22:40:28.747Z,99.90
2022-10-18T22:43:14.708Z,99.90
2022-10-18T22:46:12.425Z,99.90
2022-10-18T22:48:57.650Z,99.90
2022-10-18T22:51:43.323Z,99.90
2022-10-18T22:54:29.042Z,99.90
2022-10-18T22:57:14.612Z,99.90
2022-10-18T23:00:00.244Z,99.90
2022-10-18T23:02:48.419Z,99.90
2022-10-18T23:05:39.085Z,99.90
2022-10-18T23:08:25.536Z,99.90
2022-10-18T23:11:11.060Z,99.90
2022-10-18T23:13:57.167Z,99.90
2022-10-18T23:16:43.481Z,99.90
2022-10-18T23:19:29.023Z,99.90
2022-10-18T23:22:16.816Z,99.90
2022-10-18T23:25:02.575Z,99.90
2022-10-18T23:27:48.184Z,99.90
2022-10-18T23:30:33.946Z,99.90
2022-10-18T23:33:20.271Z,99.90
2022-10-18T23:36:08.553Z,99.90
2022-10-18T23:38:54.214Z,99.90
2022-10-18T23:41:40.470Z,99.90
2022-10-18T23:44:26.269Z,99.90
2022-10-18T23:47:11.732Z,99.90
2022-10-18T23:49:58.871Z,99.90
2022-10-18T23:52:44.698Z,99.90
2022-10-18T23:55:30.374Z,99.90
2022-10-18T23:58:15.973Z,99.90
